createdAt,value
2019-06-07T00:01:50.698Z,60.00
2019-06-07T00:04:22.924Z,60.40
2019-06-07T00:06:55.022Z,60.70
2019-06-07T00:09:27.966Z,60.70
2019-06-07T00:11:59.869Z,60.90
2019-06-07T00:14:31.762Z,61.40
2019-06-07T00:17:03.927Z,61.90
2019-06-07T00:19:35.760Z,61.70
2019-06-07T00:22:17.546Z,61.70
2019-06-07T00:24:41.273Z,61.60
2019-06-07T00:27:15.158Z,61.40
2019-06-07T00:29:47.125Z,61.00
2019-06-07T00:32:21.997Z,60.90
2019-06-07T00:34:53.164Z,60.80
2019-06-07T00:37:25.566Z,61.40
2019-06-07T00:40:13.488Z,60.80
2019-06-07T00:42:31.662Z,60.70
2019-06-07T00:45:03.522Z,60.60
2019-06-07T00:47:35.800Z,60.80
2019-06-07T00:50:08.311Z,60.30
2019-06-07T00:53:13.838Z,60.00
2019-06-07T00:55:17.427Z,60.20
2019-06-07T00:57:48.192Z,60.40
2019-06-07T01:00:25.507Z,60.70
2019-06-07T01:02:56.303Z,60.70
2019-06-07T01:05:31.456Z,61.00
2019-06-07T01:08:04.428Z,60.80
2019-06-07T01:10:53.102Z,60.20
2019-06-07T01:13:10.256Z,60.00
2019-06-07T01:15:42.414Z,59.20
2019-06-07T01:20:48.792Z,59.00
2019-06-07T01:23:59.847Z,59.00
2019-06-07T01:25:54.721Z,59.40
2019-06-07T01:28:27.776Z,59.70
2019-06-07T01:31:00.305Z,60.30
2019-06-07T01:33:50.448Z,60.20
2019-06-07T01:36:06.160Z,59.90
2019-06-07T01:38:38.425Z,59.80
2019-06-07T01:41:10.598Z,60.00
2019-06-07T01:43:42.715Z,60.10
2019-06-07T01:46:15.564Z,60.00
2019-06-07T01:48:49.844Z,59.80
2019-06-07T01:51:22.020Z,60.10
2019-06-07T01:54:41.499Z,59.50
2019-06-07T01:56:29.887Z,59.30
2019-06-07T01:59:02.517Z,59.60
2019-06-07T02:01:35.554Z,60.00
2019-06-07T02:04:07.771Z,59.70
2019-06-07T02:06:39.664Z,59.60
2019-06-07T02:09:11.799Z,59.60
2019-06-07T02:11:43.923Z,59.70
2019-06-07T02:14:16.548Z,59.70
2019-06-07T02:16:48.696Z,59.70
2019-06-07T02:19:22.008Z,59.50
2019-06-07T02:21:54.145Z,59.40
2019-06-07T02:24:28.945Z,59.30
2019-06-07T02:27:00.146Z,58.30
2019-06-07T02:29:33.686Z,58.50
2019-06-07T02:32:06.042Z,58.30
2019-06-07T02:34:39.715Z,58.40
2019-06-07T02:37:12.382Z,58.30
2019-06-07T02:39:44.270Z,58.20
2019-06-07T02:42:16.478Z,58.40
2019-06-07T02:44:48.585Z,58.50
2019-06-07T02:47:22.632Z,58.40
2019-06-07T02:49:55.058Z,58.60
2019-06-07T02:52:31.643Z,58.50
2019-06-07T02:55:00.958Z,58.80
2019-06-07T02:57:36.855Z,58.40
2019-06-07T03:00:40.581Z,58.00
2019-06-07T03:02:41.924Z,57.90
2019-06-07T03:05:13.828Z,58.10
2019-06-07T03:07:47.435Z,58.40
2019-06-07T03:10:19.345Z,59.00
2019-06-07T03:12:53.302Z,59.30
2019-06-07T03:15:37.365Z,59.10
2019-06-07T03:18:12.222Z,58.60
2019-06-07T03:21:04.315Z,58.80
2019-06-07T03:23:20.543Z,59.80
2019-06-07T03:25:54.222Z,60.90
2019-06-07T03:28:27.583Z,61.30
2019-06-07T03:31:02.649Z,61.40
2019-06-07T03:33:41.560Z,61.40
2019-06-07T03:36:22.892Z,60.90
2019-06-07T03:38:41.062Z,60.00
2019-06-07T03:41:13.650Z,59.70
2019-06-07T03:43:45.855Z,59.40
2019-06-07T03:46:18.085Z,59.20
2019-06-07T03:48:50.205Z,59.10
2019-06-07T03:51:25.212Z,59.20
2019-06-07T03:53:55.861Z,59.50
2019-06-07T03:56:28.309Z,58.60
2019-06-07T03:59:01.415Z,59.00
2019-06-07T04:01:34.820Z,59.30
2019-06-07T04:04:07.827Z,58.70
2019-06-07T04:06:42.573Z,58.40
2019-06-07T04:09:14.151Z,58.20
2019-06-07T04:11:45.998Z,59.40
2019-06-07T04:14:18.116Z,60.50
2019-06-07T04:16:50.338Z,61.10
2019-06-07T04:19:22.816Z,61.10
2019-06-07T04:21:55.315Z,60.20
2019-06-07T04:24:28.618Z,59.60
2019-06-07T04:27:00.952Z,59.40
2019-06-07T04:29:54.641Z,59.40
2019-06-07T04:32:06.708Z,59.10
2019-06-07T04:34:42.897Z,58.30
2019-06-07T04:37:12.257Z,58.70
2019-06-07T04:39:45.408Z,59.90
2019-06-07T04:42:18.862Z,61.30
2019-06-07T04:44:52.256Z,61.20
2019-06-07T04:47:26.588Z,61.30
2019-06-07T04:49:59.729Z,61.60
2019-06-07T04:52:33.450Z,62.30
2019-06-07T04:55:06.622Z,62.90
2019-06-07T04:57:40.493Z,61.90
2019-06-07T05:00:46.607Z,61.40
2019-06-07T05:02:47.020Z,60.90
2019-06-07T05:05:18.851Z,60.60
2019-06-07T05:07:50.989Z,60.00
2019-06-07T05:10:22.890Z,60.00
2019-06-07T05:12:55.507Z,59.60
2019-06-07T05:15:27.403Z,59.20
2019-06-07T05:17:59.706Z,58.80
2019-06-07T05:20:33.649Z,58.20
2019-06-07T05:23:05.360Z,58.20
2019-06-07T05:25:39.304Z,58.20
2019-06-07T05:28:11.302Z,58.00
2019-06-07T05:31:03.427Z,58.00
2019-06-07T05:33:18.000Z,58.20
2019-06-07T05:35:50.465Z,57.80
2019-06-07T05:38:22.634Z,57.80
2019-06-07T05:40:54.469Z,58.00
2019-06-07T05:43:28.226Z,58.30
2019-06-07T05:46:00.066Z,59.20
2019-06-07T05:48:31.909Z,59.80
2019-06-07T05:51:04.313Z,60.40
2019-06-07T05:53:39.992Z,59.20
2019-06-07T05:56:10.214Z,59.40
2019-06-07T05:58:44.567Z,58.70
2019-06-07T06:03:50.693Z,58.20
2019-06-07T06:06:22.549Z,58.50
2019-06-07T06:09:12.882Z,57.60
2019-06-07T06:11:43.136Z,57.00
2019-06-07T06:14:07.979Z,56.80
2019-06-07T06:16:37.175Z,55.30
2019-06-07T06:19:09.497Z,55.70
2019-06-07T06:21:44.841Z,55.60
2019-06-07T06:24:15.188Z,54.30
2019-06-07T06:26:52.150Z,54.70
2019-06-07T06:29:20.985Z,53.90
2019-06-07T06:32:39.790Z,54.00
2019-06-07T06:34:28.122Z,54.30
2019-06-07T06:37:00.739Z,53.90
2019-06-07T06:39:32.965Z,52.80
2019-06-07T06:42:05.104Z,52.20
2019-06-07T06:44:40.721Z,52.80
2019-06-07T06:47:10.775Z,51.70
2019-06-07T06:49:44.228Z,53.30
2019-06-07T06:52:16.174Z,51.50
2019-06-07T06:54:55.381Z,52.20
2019-06-07T06:57:21.903Z,51.60
2019-06-07T06:59:54.206Z,52.10
2019-06-07T07:02:26.510Z,51.20
2019-06-07T07:04:59.181Z,49.70
2019-06-07T07:07:31.692Z,49.20
2019-06-07T07:10:05.395Z,48.30
2019-06-07T07:12:37.351Z,49.00
2019-06-07T07:15:12.827Z,48.40
2019-06-07T07:17:53.772Z,47.20
2019-06-07T07:20:18.667Z,47.20
2019-06-07T07:22:54.217Z,48.60
2019-06-07T07:25:24.672Z,46.40
2019-06-07T07:27:56.809Z,47.50
2019-06-07T07:30:50.830Z,46.90
2019-06-07T07:33:22.646Z,47.20
2019-06-07T07:36:18.530Z,46.00
2019-06-07T07:38:28.584Z,45.60
2019-06-07T07:41:13.897Z,45.40
2019-06-07T07:43:34.584Z,45.80
2019-06-07T07:46:28.482Z,44.50
2019-06-07T07:48:39.986Z,45.30
2019-06-07T07:51:12.111Z,43.90
2019-06-07T07:53:54.354Z,43.10
2019-06-07T07:56:18.176Z,42.40
2019-06-07T07:58:54.523Z,43.20
2019-06-07T08:01:24.156Z,43.90
2019-06-07T08:03:56.956Z,43.50
2019-06-07T08:06:30.278Z,44.10
2019-06-07T08:09:02.548Z,43.80
2019-06-07T08:11:34.387Z,43.30
2019-06-07T08:14:06.219Z,44.00
2019-06-07T08:16:38.090Z,43.10
2019-06-07T08:19:10.290Z,43.70
2019-06-07T08:21:42.440Z,42.70
2019-06-07T08:24:14.896Z,43.00
2019-06-07T08:27:13.030Z,42.30
2019-06-07T08:29:20.999Z,41.60
2019-06-07T08:31:55.825Z,42.00
2019-06-07T08:34:27.288Z,41.90
2019-06-07T08:37:02.064Z,42.30
2019-06-07T08:39:33.367Z,42.60
2019-06-07T08:42:15.245Z,44.40
2019-06-07T08:44:38.759Z,41.90
2019-06-07T08:47:19.748Z,40.80
2019-06-07T08:49:44.160Z,39.90
2019-06-07T08:52:16.564Z,38.80
2019-06-07T08:54:48.771Z,39.20
2019-06-07T08:57:22.099Z,39.10
2019-06-07T08:59:56.611Z,39.30
2019-06-07T09:02:28.197Z,39.70
2019-06-07T09:05:11.117Z,39.60
2019-06-07T09:07:34.014Z,39.40
2019-06-07T09:10:13.415Z,39.40
2019-06-07T09:12:41.576Z,39.40
2019-06-07T09:15:22.884Z,39.10
2019-06-07T09:18:30.209Z,39.60
2019-06-07T09:20:36.212Z,39.10
2019-06-07T09:23:06.290Z,39.60
2019-06-07T09:25:31.577Z,38.90
2019-06-07T09:28:13.423Z,38.30
2019-06-07T09:30:42.718Z,38.30
2019-06-07T09:33:15.168Z,37.80
2019-06-07T09:35:47.026Z,38.40
2019-06-07T09:38:25.783Z,39.20
2019-06-07T09:40:53.087Z,38.80
2019-06-07T09:44:00.547Z,38.20
2019-06-07T09:46:01.045Z,38.40
2019-06-07T09:49:09.698Z,37.10
2019-06-07T09:51:19.193Z,37.40
2019-06-07T09:53:41.664Z,37.50
2019-06-07T09:56:14.987Z,37.20
2019-06-07T09:58:52.114Z,37.00
2019-06-07T10:01:21.011Z,37.20
2019-06-07T10:03:54.102Z,37.40
2019-06-07T10:06:25.935Z,37.30
2019-06-07T10:11:31.726Z,37.00
2019-06-07T10:14:04.462Z,36.30
2019-06-07T10:16:46.481Z,34.90
2019-06-07T10:19:10.799Z,34.00
2019-06-07T10:21:43.476Z,34.30
2019-06-07T10:24:15.347Z,34.20
2019-06-07T10:26:47.282Z,34.50
2019-06-07T10:29:19.457Z,34.70
2019-06-07T10:31:51.446Z,34.10
2019-06-07T10:34:23.337Z,34.60
2019-06-07T10:36:55.650Z,34.20
2019-06-07T10:39:28.180Z,33.80
2019-06-07T10:42:00.919Z,34.00
2019-06-07T10:44:32.934Z,33.60
2019-06-07T10:47:06.062Z,32.60
2019-06-07T10:49:38.340Z,31.80
2019-06-07T10:52:11.635Z,31.70
2019-06-07T10:54:44.342Z,32.80
2019-06-07T10:57:16.438Z,32.10
2019-06-07T10:59:49.064Z,31.10
2019-06-07T11:02:20.944Z,32.10
2019-06-07T11:04:53.713Z,32.20
2019-06-07T11:07:26.059Z,31.20
2019-06-07T11:10:07.315Z,31.20
2019-06-07T11:12:32.349Z,31.10
2019-06-07T11:15:04.600Z,31.10
2019-06-07T11:17:36.771Z,31.80
2019-06-07T11:20:10.298Z,31.50
2019-06-07T11:22:43.245Z,31.50
2019-06-07T11:25:15.490Z,31.50
2019-06-07T11:27:47.863Z,31.30
2019-06-07T11:30:20.390Z,31.10
2019-06-07T11:32:52.626Z,30.50
2019-06-07T11:35:25.094Z,30.50
2019-06-07T11:37:56.935Z,31.10
2019-06-07T11:40:35.493Z,31.30
2019-06-07T11:43:02.492Z,31.00
2019-06-07T11:45:34.719Z,29.90
2019-06-07T11:48:07.222Z,28.10
2019-06-07T11:50:39.142Z,28.80
2019-06-07T11:53:12.622Z,28.50
2019-06-07T11:55:44.706Z,29.20
2019-06-07T11:58:21.276Z,27.20
2019-06-07T12:00:50.705Z,26.60
2019-06-07T12:03:22.777Z,26.50
2019-06-07T12:05:54.909Z,25.10
2019-06-07T12:08:26.880Z,26.60
2019-06-07T12:10:59.606Z,24.50
2019-06-07T12:13:31.735Z,25.70
2019-06-07T12:16:03.612Z,24.90
2019-06-07T12:18:35.461Z,25.00
2019-06-07T12:21:07.300Z,25.50
2019-06-07T12:23:39.481Z,25.30
2019-06-07T12:26:12.285Z,24.70
2019-06-07T12:28:44.202Z,24.30
2019-06-07T12:31:17.132Z,23.80
2019-06-07T12:33:49.693Z,24.20
2019-06-07T12:36:22.075Z,22.40
2019-06-07T12:38:54.321Z,21.70
2019-06-07T12:41:26.510Z,22.00
2019-06-07T12:43:59.315Z,21.40
2019-06-07T12:46:31.884Z,21.70
2019-06-07T12:49:03.708Z,21.70
2019-06-07T12:51:36.185Z,20.80
2019-06-07T12:54:08.111Z,20.80
2019-06-07T12:56:40.145Z,20.10
2019-06-07T12:59:13.882Z,20.40
2019-06-07T13:01:46.199Z,20.20
2019-06-07T13:04:18.527Z,19.80
2019-06-07T13:06:50.662Z,19.40
2019-06-07T13:09:23.959Z,19.30
2019-06-07T13:11:56.658Z,18.60
2019-06-07T13:14:28.600Z,18.80
2019-06-07T13:17:01.033Z,18.00
2019-06-07T13:19:33.132Z,18.00
2019-06-07T13:22:04.977Z,17.40
2019-06-07T13:24:37.205Z,17.30
2019-06-07T13:27:09.435Z,17.70
2019-06-07T13:29:41.279Z,17.50
2019-06-07T13:32:13.114Z,18.20
2019-06-07T13:34:44.954Z,17.60
2019-06-07T13:37:16.994Z,17.60
2019-06-07T13:39:48.868Z,18.50
2019-06-07T13:42:22.435Z,17.90
2019-06-07T13:44:55.051Z,17.90
2019-06-07T13:47:27.550Z,15.80
2019-06-07T13:49:59.778Z,16.60
2019-06-07T13:52:31.638Z,16.30
2019-06-07T13:55:03.482Z,16.50
2019-06-07T13:57:35.301Z,15.20
2019-06-07T14:00:10.826Z,16.00
2019-06-07T14:02:43.532Z,15.40
2019-06-07T14:05:16.014Z,16.20
2019-06-07T14:07:48.564Z,16.50
2019-06-07T14:10:21.661Z,16.40
2019-06-07T14:12:53.694Z,16.50
2019-06-07T14:15:26.444Z,17.20
2019-06-07T14:17:58.976Z,16.70
2019-06-07T14:20:34.621Z,16.00
2019-06-07T14:23:05.114Z,15.00
2019-06-07T14:25:37.217Z,15.60
2019-06-07T14:28:11.323Z,15.70
2019-06-07T14:30:42.965Z,15.20
2019-06-07T14:33:15.153Z,14.50
2019-06-07T14:35:47.312Z,14.80
2019-06-07T14:38:19.136Z,15.40
2019-06-07T14:40:50.981Z,15.70
2019-06-07T14:43:23.607Z,15.70
2019-06-07T14:45:55.753Z,14.40
2019-06-07T14:48:28.075Z,14.50
2019-06-07T14:51:00.206Z,14.60
2019-06-07T14:53:33.198Z,14.20
2019-06-07T14:56:05.440Z,14.80
2019-06-07T14:58:43.083Z,14.70
2019-06-07T15:01:11.202Z,15.00
2019-06-07T15:03:43.218Z,15.40
2019-06-07T15:06:15.393Z,16.00
2019-06-07T15:08:51.326Z,16.10
2019-06-07T15:11:21.944Z,16.50
2019-06-07T15:13:54.063Z,16.30
2019-06-07T15:16:27.376Z,16.40
2019-06-07T15:18:59.983Z,17.30
2019-06-07T15:21:32.962Z,18.00
2019-06-07T15:24:05.215Z,18.30
2019-06-07T15:26:38.565Z,18.40
2019-06-07T15:29:10.775Z,18.50
2019-06-07T15:31:43.920Z,17.60
2019-06-07T15:34:15.747Z,17.20
2019-06-07T15:36:48.357Z,17.00
2019-06-07T15:39:21.687Z,16.90
2019-06-07T15:41:54.527Z,17.10
2019-06-07T15:44:26.360Z,16.20
2019-06-07T15:46:58.228Z,15.20
2019-06-07T15:49:30.338Z,15.50
2019-06-07T15:52:02.560Z,15.30
2019-06-07T15:54:36.455Z,15.20
2019-06-07T15:57:08.503Z,15.80
2019-06-07T15:59:41.563Z,15.20
2019-06-07T16:02:13.978Z,15.70
2019-06-07T16:04:46.059Z,15.60
2019-06-07T16:07:18.685Z,16.70
2019-06-07T16:09:51.121Z,17.70
2019-06-07T16:12:23.523Z,17.30
2019-06-07T16:14:55.465Z,17.30
2019-06-07T16:17:28.446Z,17.10
2019-06-07T16:20:00.876Z,17.30
2019-06-07T16:22:33.524Z,17.20
2019-06-07T16:25:05.849Z,17.40
2019-06-07T16:27:38.674Z,17.60
2019-06-07T16:30:11.331Z,18.30
2019-06-07T16:32:44.136Z,19.20
2019-06-07T16:35:18.370Z,19.20
2019-06-07T16:37:52.451Z,19.50
2019-06-07T16:40:24.849Z,19.60
2019-06-07T16:43:13.305Z,20.30
2019-06-07T16:45:31.474Z,21.00
2019-06-07T16:48:03.609Z,22.10
2019-06-07T16:50:36.691Z,22.10
2019-06-07T16:53:09.278Z,22.00
2019-06-07T16:55:42.638Z,22.30
2019-06-07T16:58:14.984Z,22.10
2019-06-07T17:00:48.599Z,22.10
2019-06-07T17:03:20.628Z,22.50
2019-06-07T17:05:57.507Z,22.50
2019-06-07T17:08:30.021Z,23.40
2019-06-07T17:11:02.269Z,23.30
2019-06-07T17:13:34.196Z,23.40
2019-06-07T17:16:06.452Z,23.90
2019-06-07T17:18:39.069Z,22.90
2019-06-07T17:21:11.330Z,23.10
2019-06-07T17:23:43.808Z,23.30
2019-06-07T17:26:16.801Z,23.90
2019-06-07T17:28:50.096Z,24.60
2019-06-07T17:31:21.969Z,25.00
2019-06-07T17:33:54.601Z,25.50
2019-06-07T17:36:26.714Z,25.60
2019-06-07T17:38:59.358Z,26.10
2019-06-07T17:41:41.897Z,27.60
2019-06-07T17:44:05.638Z,26.00
2019-06-07T17:46:37.795Z,26.50
2019-06-07T17:49:09.652Z,27.10
2019-06-07T17:51:41.855Z,29.70
2019-06-07T17:54:14.208Z,31.30
2019-06-07T17:56:48.230Z,32.10
2019-06-07T17:59:20.402Z,32.20
2019-06-07T18:02:13.546Z,32.70
2019-06-07T18:04:26.804Z,34.10
2019-06-07T18:06:58.742Z,34.00
2019-06-07T18:09:31.098Z,35.10
2019-06-07T18:12:03.205Z,35.80
2019-06-07T18:14:35.793Z,36.30
2019-06-07T18:17:08.265Z,36.70
2019-06-07T18:19:40.461Z,37.40
2019-06-07T18:22:12.775Z,38.00
2019-06-07T18:24:46.457Z,38.70
2019-06-07T18:27:18.554Z,38.70
2019-06-07T18:29:50.782Z,39.10
2019-06-07T18:32:23.477Z,39.30
2019-06-07T18:34:56.889Z,39.50
2019-06-07T18:37:29.109Z,40.00
2019-06-07T18:40:02.476Z,42.00
2019-06-07T18:42:34.688Z,47.20
2019-06-07T18:45:07.494Z,53.40
2019-06-07T18:47:40.023Z,56.80
2019-06-07T18:50:12.072Z,59.50
2019-06-07T18:52:46.735Z,62.70
2019-06-07T18:55:19.525Z,65.00
2019-06-07T18:57:52.228Z,66.30
2019-06-07T19:00:26.811Z,67.90
2019-06-07T19:02:58.654Z,68.20
2019-06-07T19:05:31.138Z,70.50
2019-06-07T19:08:03.911Z,71.90
2019-06-07T19:10:35.810Z,71.20
2019-06-07T19:13:08.255Z,73.50
2019-06-07T19:15:43.187Z,73.10
2019-06-07T19:18:14.839Z,72.80
2019-06-07T19:20:47.381Z,72.40
2019-06-07T19:23:19.226Z,72.60
2019-06-07T19:25:52.202Z,73.80
2019-06-07T19:28:24.512Z,74.70
2019-06-07T19:30:57.233Z,74.00
2019-06-07T19:33:29.392Z,72.90
2019-06-07T19:36:01.874Z,73.20
2019-06-07T19:38:34.172Z,71.40
2019-06-07T19:41:18.144Z,71.00
2019-06-07T19:43:40.078Z,70.60
2019-06-07T19:46:12.197Z,70.20
2019-06-07T19:48:44.346Z,69.60
2019-06-07T19:51:20.085Z,68.40
2019-06-07T19:53:50.211Z,66.70
2019-06-07T19:56:22.142Z,68.00
2019-06-07T19:58:55.447Z,66.80
2019-06-07T20:01:27.713Z,64.90
2019-06-07T20:04:00.315Z,64.30
2019-06-07T20:06:32.278Z,64.90
2019-06-07T20:09:05.735Z,63.30
2019-06-07T20:11:39.084Z,65.00
2019-06-07T20:14:12.222Z,64.00
2019-06-07T20:16:44.835Z,63.60
2019-06-07T20:19:17.348Z,63.80
2019-06-07T20:21:49.576Z,63.90
2019-06-07T20:24:27.416Z,63.20
2019-06-07T20:27:00.285Z,59.50
2019-06-07T20:29:32.760Z,62.20
2019-06-07T20:32:04.680Z,61.30
2019-06-07T20:34:37.121Z,61.40
2019-06-07T20:37:09.836Z,59.90
2019-06-07T20:39:41.669Z,57.30
2019-06-07T20:42:13.896Z,57.90
2019-06-07T20:44:45.802Z,57.50
2019-06-07T20:47:18.032Z,57.10
2019-06-07T20:49:50.216Z,57.60
2019-06-07T20:52:22.940Z,55.50
2019-06-07T20:54:54.792Z,55.60
2019-06-07T20:57:27.143Z,56.60
2019-06-07T20:59:59.023Z,57.20
2019-06-07T21:02:31.191Z,57.20
2019-06-07T21:05:03.583Z,57.20
2019-06-07T21:07:35.873Z,56.30
2019-06-07T21:10:08.540Z,55.50
2019-06-07T21:12:41.970Z,55.60
2019-06-07T21:15:14.963Z,55.70
2019-06-07T21:17:47.380Z,55.40
2019-06-07T21:20:20.036Z,55.50
2019-06-07T21:22:52.311Z,55.80
2019-06-07T21:25:24.272Z,55.10
2019-06-07T21:27:56.823Z,53.90
2019-06-07T21:30:29.125Z,53.70
2019-06-07T21:33:01.441Z,53.50
2019-06-07T21:35:34.251Z,53.00
2019-06-07T21:38:06.208Z,53.50
2019-06-07T21:40:38.916Z,52.60
2019-06-07T21:43:10.939Z,52.70
2019-06-07T21:45:42.945Z,52.60
2019-06-07T21:48:15.127Z,52.60
2019-06-07T21:50:47.564Z,52.30
2019-06-07T21:53:20.311Z,51.40
2019-06-07T21:55:52.843Z,49.30
2019-06-07T21:58:25.723Z,50.30
2019-06-07T22:01:23.116Z,49.20
2019-06-07T22:03:55.486Z,49.40
2019-06-07T22:06:27.819Z,49.00
2019-06-07T22:08:59.753Z,49.20
2019-06-07T22:11:32.129Z,49.50
2019-06-07T22:14:06.273Z,46.60
2019-06-07T22:16:38.239Z,47.60
2019-06-07T22:19:10.847Z,48.00
2019-06-07T22:21:43.586Z,47.70
2019-06-07T22:24:15.796Z,48.00
2019-06-07T22:26:47.645Z,47.40
2019-06-07T22:29:20.010Z,48.10
2019-06-07T22:31:52.214Z,48.70
2019-06-07T22:34:24.631Z,47.50
2019-06-07T22:36:56.467Z,46.70
2019-06-07T22:39:28.723Z,47.20
2019-06-07T22:42:01.426Z,47.50
2019-06-07T22:44:33.404Z,47.60
2019-06-07T22:47:05.245Z,47.40
2019-06-07T22:49:37.125Z,48.70
2019-06-07T22:52:13.370Z,49.70
2019-06-07T22:54:43.152Z,51.10
2019-06-07T22:57:25.173Z,51.40
2019-06-07T22:59:57.095Z,51.00
2019-06-07T23:02:29.635Z,50.00
2019-06-07T23:05:04.986Z,50.30
2019-06-07T23:07:40.313Z,50.40
2019-06-07T23:10:13.340Z,50.80
2019-06-07T23:12:45.846Z,51.50
2019-06-07T23:15:20.411Z,50.90
2019-06-07T23:17:55.129Z,51.10
2019-06-07T23:20:27.481Z,51.90
2019-06-07T23:23:01.158Z,51.90
2019-06-07T23:25:43.201Z,50.70
2019-06-07T23:28:18.895Z,50.60
2019-06-07T23:30:50.870Z,49.80
2019-06-07T23:33:24.862Z,49.70
2019-06-07T23:35:57.003Z,51.70
2019-06-07T23:38:29.665Z,52.60
2019-06-07T23:41:01.676Z,53.40
2019-06-07T23:43:33.848Z,52.70
2019-06-07T23:46:06.067Z,51.70
2019-06-07T23:48:38.450Z,51.10
2019-06-07T23:51:11.507Z,47.90
2019-06-07T23:53:43.976Z,50.40
2019-06-07T23:56:16.207Z,47.80
2019-06-07T23:58:48.299Z,48.70
